createdAt,value
2019-03-24T00:02:22.928Z,7.60
2019-03-24T00:04:48.976Z,7.60
2019-03-24T00:07:15.071Z,7.60
2019-03-24T00:09:41.157Z,7.50
2019-03-24T00:12:07.233Z,7.50
2019-03-24T00:14:33.335Z,7.50
2019-03-24T00:16:59.408Z,7.50
2019-03-24T00:19:25.462Z,7.50
2019-03-24T00:21:51.526Z,7.40
2019-03-24T00:24:17.596Z,7.40
2019-03-24T00:26:43.696Z,7.40
2019-03-24T00:29:09.792Z,7.40
2019-03-24T00:31:35.878Z,7.30
2019-03-24T00:34:01.933Z,7.30
2019-03-24T00:36:28.034Z,7.30
2019-03-24T00:38:54.095Z,7.30
2019-03-24T00:41:20.176Z,7.30
2019-03-24T00:43:46.261Z,7.20
2019-03-24T00:46:12.356Z,7.20
2019-03-24T00:48:38.416Z,7.20
2019-03-24T00:51:04.533Z,7.20
2019-03-24T00:53:30.707Z,7.10
2019-03-24T00:55:56.789Z,7.10
2019-03-24T00:58:23.808Z,7.10
2019-03-24T01:00:50.277Z,7.10
2019-03-24T01:03:16.428Z,7.00
2019-03-24T01:05:42.620Z,6.80
2019-03-24T01:08:08.781Z,6.70
2019-03-24T01:10:34.863Z,6.80
2019-03-24T01:13:00.920Z,6.80
2019-03-24T01:15:26.998Z,6.80
2019-03-24T01:17:53.079Z,6.70
2019-03-24T01:20:19.228Z,6.70
2019-03-24T01:22:45.403Z,6.70
2019-03-24T01:25:11.671Z,6.70
2019-03-24T01:27:37.765Z,6.70
2019-03-24T01:30:05.735Z,6.70
2019-03-24T01:32:31.795Z,6.60
2019-03-24T01:34:57.880Z,6.60
2019-03-24T01:37:23.951Z,6.60
2019-03-24T01:39:50.211Z,6.50
2019-03-24T01:42:16.301Z,6.50
2019-03-24T01:44:42.387Z,6.40
2019-03-24T01:47:08.460Z,6.40
2019-03-24T01:49:34.545Z,6.30
2019-03-24T01:52:00.599Z,6.30
2019-03-24T01:54:26.671Z,6.20
2019-03-24T01:56:52.795Z,6.20
2019-03-24T01:59:18.865Z,6.10
2019-03-24T02:01:44.961Z,6.00
2019-03-24T02:04:11.012Z,5.90
2019-03-24T02:06:38.677Z,5.90
2019-03-24T02:09:06.596Z,5.80
2019-03-24T02:11:32.643Z,5.70
2019-03-24T02:13:58.729Z,5.80
2019-03-24T02:16:24.791Z,5.80
2019-03-24T02:18:50.879Z,5.70
2019-03-24T02:21:17.041Z,5.40
2019-03-24T02:23:43.124Z,5.30
2019-03-24T02:26:09.198Z,5.30
2019-03-24T02:28:35.303Z,5.40
2019-03-24T02:31:01.391Z,5.50
2019-03-24T02:33:27.469Z,5.50
2019-03-24T02:35:53.513Z,5.50
2019-03-24T02:38:19.607Z,5.50
2019-03-24T02:40:45.705Z,5.60
2019-03-24T02:43:11.888Z,5.50
2019-03-24T02:45:37.957Z,5.50
2019-03-24T02:48:04.148Z,5.50
2019-03-24T02:50:30.208Z,5.50
2019-03-24T02:52:56.285Z,5.40
2019-03-24T02:55:22.372Z,5.40
2019-03-24T02:57:48.444Z,5.40
2019-03-24T03:00:15.026Z,5.40
2019-03-24T03:02:41.107Z,5.40
2019-03-24T03:05:08.009Z,5.40
2019-03-24T03:07:34.162Z,5.40
2019-03-24T03:10:00.493Z,5.30
2019-03-24T03:12:26.712Z,5.30
2019-03-24T03:14:52.896Z,5.30
2019-03-24T03:17:18.972Z,5.30
2019-03-24T03:19:45.046Z,5.30
2019-03-24T03:22:11.114Z,5.20
2019-03-24T03:24:37.290Z,5.30
2019-03-24T03:27:03.503Z,5.20
2019-03-24T03:29:29.620Z,5.20
2019-03-24T03:31:55.717Z,5.20
2019-03-24T03:34:21.782Z,5.20
2019-03-24T03:36:47.866Z,5.20
2019-03-24T03:39:14.071Z,5.20
2019-03-24T03:41:40.234Z,5.20
2019-03-24T03:44:06.408Z,5.20
2019-03-24T03:46:32.478Z,5.10
2019-03-24T03:48:58.652Z,5.10
2019-03-24T03:51:24.737Z,5.10
2019-03-24T03:53:50.800Z,5.10
2019-03-24T03:56:16.856Z,5.10
2019-03-24T03:58:43.002Z,5.00
2019-03-24T04:01:09.067Z,5.00
2019-03-24T04:03:35.137Z,5.00
2019-03-24T04:06:01.300Z,4.90
2019-03-24T04:08:27.392Z,4.90
2019-03-24T04:10:53.465Z,4.90
2019-03-24T04:13:19.564Z,4.90
2019-03-24T04:15:46.053Z,4.90
2019-03-24T04:18:12.140Z,4.80
2019-03-24T04:20:38.220Z,4.80
2019-03-24T04:23:04.402Z,4.80
2019-03-24T04:25:30.477Z,4.70
2019-03-24T04:27:56.535Z,4.70
2019-03-24T04:30:22.740Z,4.70
2019-03-24T04:32:48.804Z,4.70
2019-03-24T04:35:14.895Z,4.70
2019-03-24T04:37:41.012Z,4.70
2019-03-24T04:40:07.377Z,4.70
2019-03-24T04:42:33.490Z,4.70
2019-03-24T04:44:59.684Z,4.60
2019-03-24T04:47:25.747Z,4.60
2019-03-24T04:49:51.830Z,4.60
2019-03-24T04:52:17.912Z,4.60
2019-03-24T04:54:44.054Z,4.60
2019-03-24T04:57:10.174Z,4.60
2019-03-24T04:59:36.331Z,4.60
2019-03-24T05:02:02.509Z,4.50
2019-03-24T05:04:28.596Z,4.50
2019-03-24T05:06:55.134Z,4.50
2019-03-24T05:09:21.928Z,4.50
2019-03-24T05:11:47.991Z,4.50
2019-03-24T05:14:14.055Z,4.40
2019-03-24T05:16:40.131Z,4.40
2019-03-24T05:19:06.176Z,4.40
2019-03-24T05:21:32.257Z,4.30
2019-03-24T05:23:58.357Z,4.30
2019-03-24T05:26:24.635Z,4.30
2019-03-24T05:28:50.720Z,4.30
2019-03-24T05:31:16.799Z,4.30
2019-03-24T05:33:42.883Z,4.30
2019-03-24T05:36:08.944Z,4.30
2019-03-24T05:38:35.017Z,4.30
2019-03-24T05:41:01.098Z,4.30
2019-03-24T05:43:27.159Z,4.20
2019-03-24T05:45:53.259Z,4.20
2019-03-24T05:48:19.461Z,4.20
2019-03-24T05:50:45.567Z,4.10
2019-03-24T05:53:11.643Z,4.10
2019-03-24T05:55:37.722Z,4.10
2019-03-24T05:58:03.818Z,4.10
2019-03-24T06:00:29.892Z,4.10
2019-03-24T06:02:57.345Z,4.10
2019-03-24T06:05:23.669Z,4.10
2019-03-24T06:07:49.765Z,4.10
2019-03-24T06:10:16.043Z,4.00
2019-03-24T06:12:42.136Z,4.00
2019-03-24T06:15:09.105Z,4.10
2019-03-24T06:17:35.245Z,4.10
2019-03-24T06:20:02.032Z,4.20
2019-03-24T06:22:28.220Z,4.20
2019-03-24T06:24:54.383Z,4.30
2019-03-24T06:27:20.477Z,4.30
2019-03-24T06:29:46.538Z,4.40
2019-03-24T06:32:12.599Z,4.40
2019-03-24T06:34:38.666Z,4.50
2019-03-24T06:37:04.721Z,4.60
2019-03-24T06:39:30.817Z,4.60
2019-03-24T06:41:56.882Z,4.70
2019-03-24T06:44:22.987Z,4.70
2019-03-24T06:46:49.057Z,4.80
2019-03-24T06:49:16.151Z,4.90
2019-03-24T06:51:42.227Z,5.00
2019-03-24T06:54:08.297Z,5.00
2019-03-24T06:56:34.363Z,5.10
2019-03-24T06:59:00.464Z,5.20
2019-03-24T07:01:26.620Z,5.20
2019-03-24T07:03:52.760Z,5.40
2019-03-24T07:06:18.877Z,5.50
2019-03-24T07:08:44.984Z,5.60
2019-03-24T07:11:13.876Z,5.70
2019-03-24T07:13:40.026Z,5.80
2019-03-24T07:16:06.108Z,6.00
2019-03-24T07:18:32.211Z,6.10
2019-03-24T07:20:58.280Z,6.20
2019-03-24T07:23:24.345Z,6.20
2019-03-24T07:25:50.425Z,6.20
2019-03-24T07:28:16.520Z,6.30
2019-03-24T07:30:42.599Z,6.40
2019-03-24T07:33:08.680Z,6.60
2019-03-24T07:35:34.784Z,6.70
2019-03-24T07:38:00.851Z,6.70
2019-03-24T07:40:26.928Z,6.80
2019-03-24T07:42:53.028Z,6.80
2019-03-24T07:45:19.126Z,6.90
2019-03-24T07:47:45.233Z,7.00
2019-03-24T07:50:11.612Z,7.10
2019-03-24T07:52:37.695Z,7.20
2019-03-24T07:55:05.491Z,7.40
2019-03-24T07:57:31.559Z,7.40
2019-03-24T07:59:57.696Z,7.50
2019-03-24T08:02:23.772Z,7.50
2019-03-24T08:04:49.889Z,7.50
2019-03-24T08:07:15.967Z,7.60
2019-03-24T08:09:42.077Z,7.80
2019-03-24T08:12:08.144Z,8.00
2019-03-24T08:14:34.220Z,8.20
2019-03-24T08:17:00.312Z,8.30
2019-03-24T08:19:26.377Z,8.30
2019-03-24T08:21:52.463Z,8.40
2019-03-24T08:24:18.577Z,8.60
2019-03-24T08:26:44.648Z,8.70
2019-03-24T08:29:10.727Z,8.80
2019-03-24T08:31:36.804Z,9.00
2019-03-24T08:34:02.994Z,9.10
2019-03-24T08:36:29.061Z,9.10
2019-03-24T08:38:55.228Z,9.10
2019-03-24T08:41:21.394Z,9.20
2019-03-24T08:43:47.563Z,9.20
2019-03-24T08:46:13.679Z,9.30
2019-03-24T08:48:41.123Z,9.40
2019-03-24T08:51:07.586Z,9.40
2019-03-24T08:53:33.800Z,9.40
2019-03-24T08:55:59.984Z,9.60
2019-03-24T08:58:26.076Z,9.70
2019-03-24T09:00:52.148Z,9.70
2019-03-24T09:03:18.237Z,9.60
2019-03-24T09:05:44.329Z,9.60
2019-03-24T09:08:10.401Z,9.70
2019-03-24T09:10:36.607Z,10.00
2019-03-24T09:13:02.864Z,10.00
2019-03-24T09:15:29.900Z,10.20
2019-03-24T09:17:55.992Z,10.10
2019-03-24T09:20:22.097Z,10.10
2019-03-24T09:22:48.153Z,10.20
2019-03-24T09:25:14.248Z,10.20
2019-03-24T09:27:40.311Z,10.20
2019-03-24T09:30:13.200Z,10.40
2019-03-24T09:32:39.268Z,10.50
2019-03-24T09:35:05.441Z,10.50
2019-03-24T09:37:31.675Z,10.50
2019-03-24T09:39:57.736Z,10.70
2019-03-24T09:42:23.816Z,10.70
2019-03-24T09:44:49.879Z,10.80
2019-03-24T09:47:16.048Z,10.90
2019-03-24T09:49:42.196Z,11.00
2019-03-24T09:52:08.265Z,11.20
2019-03-24T09:54:34.344Z,11.40
2019-03-24T09:57:00.459Z,11.70
2019-03-24T09:59:27.537Z,11.80
2019-03-24T10:01:53.620Z,11.90
2019-03-24T10:04:19.700Z,12.10
2019-03-24T10:06:45.763Z,12.20
2019-03-24T10:09:11.863Z,12.40
2019-03-24T10:11:37.925Z,12.60
2019-03-24T10:14:04.057Z,12.60
2019-03-24T10:16:30.180Z,12.80
2019-03-24T10:18:56.243Z,12.90
2019-03-24T10:21:22.336Z,13.10
2019-03-24T10:23:48.412Z,13.30
2019-03-24T10:26:14.490Z,13.40
2019-03-24T10:28:40.573Z,13.40
2019-03-24T10:31:06.648Z,13.50
2019-03-24T10:33:32.715Z,13.70
2019-03-24T10:35:58.816Z,13.80
2019-03-24T10:38:24.952Z,13.90
2019-03-24T10:40:51.162Z,13.90
2019-03-24T10:43:17.227Z,14.00
2019-03-24T10:45:43.300Z,14.00
2019-03-24T10:48:09.370Z,14.10
2019-03-24T10:50:35.486Z,14.10
2019-03-24T10:53:01.761Z,14.20
2019-03-24T10:55:27.831Z,14.40
2019-03-24T10:57:54.067Z,14.40
2019-03-24T11:00:35.162Z,14.40
2019-03-24T11:03:01.284Z,14.50
2019-03-24T11:05:27.404Z,14.40
2019-03-24T11:07:53.569Z,14.50
2019-03-24T11:10:19.699Z,14.60
2019-03-24T11:12:45.776Z,14.50
2019-03-24T11:15:12.068Z,14.50
2019-03-24T11:17:38.249Z,14.40
2019-03-24T11:20:05.710Z,14.40
2019-03-24T11:22:35.139Z,14.40
2019-03-24T11:25:01.219Z,14.30
2019-03-24T11:27:27.303Z,14.30
2019-03-24T11:29:53.475Z,14.40
2019-03-24T11:32:19.544Z,14.50
2019-03-24T11:34:45.610Z,14.40
2019-03-24T11:37:11.680Z,14.50
2019-03-24T11:39:37.752Z,14.50
2019-03-24T11:42:03.840Z,14.50
2019-03-24T11:44:29.904Z,14.60
2019-03-24T11:46:55.968Z,14.90
2019-03-24T11:49:22.048Z,15.10
2019-03-24T11:51:48.278Z,15.10
2019-03-24T11:54:14.510Z,15.20
2019-03-24T11:56:40.633Z,15.10
2019-03-24T11:59:06.786Z,15.10
2019-03-24T12:01:38.157Z,15.20
2019-03-24T12:04:00.906Z,15.40
2019-03-24T12:06:27.021Z,15.60
2019-03-24T12:08:53.115Z,15.50
2019-03-24T12:11:19.238Z,15.70
2019-03-24T12:13:45.312Z,15.80
2019-03-24T12:16:11.717Z,15.90
2019-03-24T12:18:37.865Z,16.00
2019-03-24T12:21:03.923Z,16.00
2019-03-24T12:23:30.014Z,16.20
2019-03-24T12:25:56.108Z,16.10
2019-03-24T12:28:22.304Z,16.00
2019-03-24T12:30:48.396Z,16.00
2019-03-24T12:33:14.489Z,16.10
2019-03-24T12:35:40.539Z,16.20
2019-03-24T12:38:06.714Z,16.20
2019-03-24T12:40:32.803Z,16.20
2019-03-24T12:42:58.968Z,16.30
2019-03-24T12:45:25.040Z,16.30
2019-03-24T12:47:51.121Z,16.40
2019-03-24T12:50:17.197Z,16.50
2019-03-24T12:52:43.284Z,16.60
2019-03-24T12:55:09.468Z,16.80
2019-03-24T12:57:35.673Z,16.90
2019-03-24T13:00:06.820Z,16.80
2019-03-24T13:02:32.877Z,16.70
2019-03-24T13:04:59.265Z,16.70
2019-03-24T13:07:25.435Z,16.90
2019-03-24T13:09:51.617Z,17.00
2019-03-24T13:12:17.707Z,16.90
2019-03-24T13:14:43.901Z,16.90
2019-03-24T13:17:10.014Z,16.80
2019-03-24T13:19:36.335Z,16.90
2019-03-24T13:22:02.592Z,16.90
2019-03-24T13:24:28.700Z,16.90
2019-03-24T13:26:54.852Z,17.00
2019-03-24T13:29:21.025Z,17.10
2019-03-24T13:31:48.308Z,17.20
2019-03-24T13:34:15.112Z,17.40
2019-03-24T13:36:41.270Z,17.50
2019-03-24T13:39:07.439Z,17.40
2019-03-24T13:41:33.520Z,17.40
2019-03-24T13:43:59.588Z,17.50
2019-03-24T13:46:25.667Z,17.70
2019-03-24T13:48:51.738Z,17.90
2019-03-24T13:51:17.816Z,18.00
2019-03-24T13:53:43.883Z,18.10
2019-03-24T13:56:10.057Z,18.30
2019-03-24T13:58:36.127Z,18.40
2019-03-24T14:01:03.509Z,18.60
2019-03-24T14:03:29.693Z,18.90
2019-03-24T14:05:55.847Z,19.10
2019-03-24T14:08:22.036Z,19.30
2019-03-24T14:10:48.118Z,19.40
2019-03-24T14:13:14.271Z,19.40
2019-03-24T14:15:40.349Z,19.60
2019-03-24T14:18:06.401Z,19.70
2019-03-24T14:20:42.667Z,19.70
2019-03-24T14:23:00.478Z,19.60
2019-03-24T14:25:26.549Z,19.70
2019-03-24T14:27:52.689Z,19.60
2019-03-24T14:30:22.657Z,19.80
2019-03-24T14:32:48.752Z,20.10
2019-03-24T14:35:14.842Z,20.10
2019-03-24T14:37:41.017Z,20.20
2019-03-24T14:40:07.441Z,20.40
2019-03-24T14:42:33.530Z,20.40
2019-03-24T14:44:59.612Z,20.30
2019-03-24T14:47:25.800Z,20.40
2019-03-24T14:49:51.861Z,20.40
2019-03-24T14:52:17.932Z,20.50
2019-03-24T14:54:44.004Z,20.50
2019-03-24T14:57:10.110Z,20.50
2019-03-24T14:59:36.288Z,20.30
2019-03-24T15:02:02.410Z,20.00
2019-03-24T15:04:28.519Z,20.00
2019-03-24T15:06:54.600Z,20.00
2019-03-24T15:09:20.692Z,20.00
2019-03-24T15:11:46.746Z,20.00
2019-03-24T15:14:12.840Z,20.00
2019-03-24T15:16:39.003Z,19.90
2019-03-24T15:19:05.059Z,20.00
2019-03-24T15:21:31.180Z,19.90
2019-03-24T15:23:57.235Z,19.90
2019-03-24T15:26:23.322Z,19.80
2019-03-24T15:28:49.411Z,19.80
2019-03-24T15:31:15.503Z,19.80
2019-03-24T15:33:41.780Z,19.90
2019-03-24T15:36:07.965Z,19.80
2019-03-24T15:38:34.131Z,19.80
2019-03-24T15:41:00.337Z,19.80
2019-03-24T15:43:26.509Z,19.90
2019-03-24T15:45:52.623Z,19.90
2019-03-24T15:48:18.687Z,19.70
2019-03-24T15:50:44.780Z,19.50
2019-03-24T15:53:10.890Z,19.50
2019-03-24T15:55:37.148Z,19.30
2019-03-24T15:58:03.221Z,19.10
2019-03-24T16:00:40.841Z,18.80
2019-03-24T16:03:07.015Z,18.80
2019-03-24T16:05:33.104Z,18.70
2019-03-24T16:07:59.232Z,18.70
2019-03-24T16:10:34.859Z,18.60
2019-03-24T16:12:53.281Z,18.50
2019-03-24T16:15:19.362Z,18.50
2019-03-24T16:17:45.438Z,18.50
2019-03-24T16:20:11.634Z,18.40
2019-03-24T16:22:37.695Z,18.40
2019-03-24T16:25:05.777Z,18.40
2019-03-24T16:27:31.893Z,18.40
2019-03-24T16:29:58.060Z,18.40
2019-03-24T16:32:24.266Z,17.70
2019-03-24T16:34:50.339Z,17.50
2019-03-24T16:37:16.410Z,17.30
2019-03-24T16:39:42.516Z,17.10
2019-03-24T16:42:08.593Z,16.90
2019-03-24T16:44:34.798Z,16.80
2019-03-24T16:47:00.885Z,16.70
2019-03-24T16:49:26.972Z,16.70
2019-03-24T16:51:53.040Z,16.60
2019-03-24T16:54:19.136Z,16.60
2019-03-24T16:56:45.308Z,16.50
2019-03-24T16:59:15.299Z,16.30
2019-03-24T17:01:51.037Z,16.10
2019-03-24T17:04:23.851Z,16.00
2019-03-24T17:06:50.465Z,15.90
2019-03-24T17:09:16.568Z,15.80
2019-03-24T17:11:42.654Z,15.70
2019-03-24T17:14:08.824Z,15.70
2019-03-24T17:16:35.091Z,15.70
2019-03-24T17:19:01.198Z,15.60
2019-03-24T17:21:27.491Z,15.60
2019-03-24T17:23:53.734Z,15.50
2019-03-24T17:26:19.815Z,15.50
2019-03-24T17:28:47.039Z,15.60
2019-03-24T17:31:13.398Z,15.50
2019-03-24T17:33:39.586Z,15.50
2019-03-24T17:36:05.847Z,15.40
2019-03-24T17:38:32.080Z,15.30
2019-03-24T17:40:58.143Z,15.40
2019-03-24T17:43:24.224Z,15.40
2019-03-24T17:45:50.309Z,15.20
2019-03-24T17:48:16.492Z,15.10
2019-03-24T17:50:42.596Z,14.90
2019-03-24T17:53:08.672Z,14.80
2019-03-24T17:55:34.727Z,14.80
2019-03-24T17:58:00.851Z,14.80
2019-03-24T18:00:39.198Z,14.70
2019-03-24T18:03:05.492Z,14.60
2019-03-24T18:05:31.605Z,14.70
2019-03-24T18:07:57.823Z,14.80
2019-03-24T18:10:24.056Z,14.80
2019-03-24T18:12:50.356Z,14.90
2019-03-24T18:15:16.521Z,15.00
2019-03-24T18:17:42.652Z,15.00
2019-03-24T18:20:09.528Z,14.90
2019-03-24T18:22:35.745Z,14.90
2019-03-24T18:25:03.287Z,14.90
2019-03-24T18:27:29.374Z,14.90
2019-03-24T18:29:55.436Z,14.90
2019-03-24T18:32:23.050Z,14.90
2019-03-24T18:34:49.427Z,14.90
2019-03-24T18:37:15.519Z,15.00
2019-03-24T18:39:41.621Z,14.90
2019-03-24T18:42:07.798Z,15.00
2019-03-24T18:44:34.005Z,14.90
2019-03-24T18:47:00.096Z,14.90
2019-03-24T18:49:26.320Z,14.90
2019-03-24T18:51:52.745Z,14.80
2019-03-24T18:54:18.843Z,14.70
2019-03-24T18:56:45.012Z,14.50
2019-03-24T18:59:11.106Z,14.40
2019-03-24T19:01:37.191Z,14.30
2019-03-24T19:04:03.432Z,14.10
2019-03-24T19:06:29.558Z,14.10
2019-03-24T19:08:55.799Z,14.00
2019-03-24T19:11:22.073Z,13.90
2019-03-24T19:13:48.132Z,13.80
2019-03-24T19:16:14.241Z,13.70
2019-03-24T19:18:40.321Z,13.60
2019-03-24T19:21:06.396Z,13.50
2019-03-24T19:23:32.458Z,13.40
2019-03-24T19:25:58.943Z,13.40
2019-03-24T19:28:25.099Z,13.40
2019-03-24T19:30:51.608Z,13.30
2019-03-24T19:33:18.597Z,13.20
2019-03-24T19:35:44.663Z,13.20
2019-03-24T19:38:10.945Z,13.20
2019-03-24T19:40:37.092Z,13.10
2019-03-24T19:43:03.375Z,13.00
2019-03-24T19:45:29.445Z,12.80
2019-03-24T19:47:55.978Z,12.70
2019-03-24T19:50:22.447Z,12.60
2019-03-24T19:52:48.640Z,12.50
2019-03-24T19:55:14.839Z,12.50
2019-03-24T19:57:40.972Z,12.50
2019-03-24T20:00:08.023Z,12.40
2019-03-24T20:02:34.098Z,12.30
2019-03-24T20:05:00.362Z,12.30
2019-03-24T20:07:26.628Z,12.30
2019-03-24T20:09:52.709Z,12.30
2019-03-24T20:12:18.909Z,12.20
2019-03-24T20:14:44.996Z,12.20
2019-03-24T20:17:11.089Z,12.10
2019-03-24T20:19:37.239Z,12.10
2019-03-24T20:22:03.336Z,12.00
2019-03-24T20:24:29.506Z,11.90
2019-03-24T20:26:55.672Z,11.80
2019-03-24T20:29:21.882Z,11.80
2019-03-24T20:31:48.199Z,11.70
2019-03-24T20:34:14.300Z,11.70
2019-03-24T20:36:40.440Z,11.60
2019-03-24T20:39:07.628Z,11.50
2019-03-24T20:41:33.696Z,11.40
2019-03-24T20:43:59.808Z,11.30
2019-03-24T20:46:25.974Z,11.10
2019-03-24T20:48:52.101Z,11.10
2019-03-24T20:51:18.192Z,11.00
2019-03-24T20:53:44.539Z,10.90
2019-03-24T20:56:10.905Z,10.80
